createdAt,value
2019-02-17T00:00:31.460Z,74.70
2019-02-17T00:03:01.175Z,74.70
2019-02-17T00:05:30.424Z,74.50
2019-02-17T00:07:59.923Z,74.50
2019-02-17T00:10:29.578Z,74.60
2019-02-17T00:12:59.274Z,74.60
2019-02-17T00:15:28.744Z,74.50
2019-02-17T00:17:58.528Z,74.60
2019-02-17T00:20:27.884Z,74.80
2019-02-17T00:22:58.519Z,74.90
2019-02-17T00:25:28.165Z,74.90
2019-02-17T00:27:57.049Z,74.90
2019-02-17T00:30:27.075Z,75.00
2019-02-17T00:32:56.383Z,75.10
2019-02-17T00:35:25.869Z,75.30
2019-02-17T00:37:55.502Z,75.20
2019-02-17T00:40:24.925Z,75.10
2019-02-17T00:42:54.934Z,75.10
2019-02-17T00:45:24.954Z,75.20
2019-02-17T00:47:54.486Z,75.20
2019-02-17T00:50:23.862Z,75.10
2019-02-17T00:52:53.949Z,75.10
2019-02-17T00:55:24.069Z,75.10
2019-02-17T00:57:54.347Z,75.00
2019-02-17T01:00:24.446Z,74.90
2019-02-17T01:02:53.881Z,74.90
2019-02-17T01:05:23.322Z,74.90
2019-02-17T01:07:53.218Z,75.00
2019-02-17T01:10:23.374Z,74.80
2019-02-17T01:12:53.907Z,74.80
2019-02-17T01:15:24.281Z,74.90
2019-02-17T01:17:53.922Z,75.00
2019-02-17T01:20:24.227Z,75.00
2019-02-17T01:22:56.043Z,75.20
2019-02-17T01:25:26.660Z,75.20
2019-02-17T01:27:55.962Z,75.20
2019-02-17T01:30:25.671Z,75.20
2019-02-17T01:32:55.586Z,75.20
2019-02-17T01:35:25.042Z,75.00
2019-02-17T01:37:54.384Z,75.10
2019-02-17T01:40:23.825Z,75.10
2019-02-17T01:42:53.278Z,75.00
2019-02-17T01:45:24.063Z,75.10
2019-02-17T01:47:53.721Z,75.00
2019-02-17T01:50:23.414Z,75.00
2019-02-17T01:52:54.608Z,74.90
2019-02-17T01:55:24.334Z,75.00
2019-02-17T01:57:53.964Z,75.10
2019-02-17T02:00:22.892Z,75.20
2019-02-17T02:02:52.297Z,75.40
2019-02-17T02:05:22.368Z,75.50
2019-02-17T02:07:51.954Z,75.50
2019-02-17T02:10:21.280Z,75.30
2019-02-17T02:12:52.211Z,75.30
2019-02-17T02:15:22.041Z,75.30
2019-02-17T02:17:53.092Z,75.20
2019-02-17T02:20:23.364Z,75.30
2019-02-17T02:22:53.441Z,75.30
2019-02-17T02:25:23.139Z,75.40
2019-02-17T02:27:52.646Z,75.50
2019-02-17T02:30:22.681Z,75.60
2019-02-17T02:32:51.831Z,75.60
2019-02-17T02:35:21.460Z,75.70
2019-02-17T02:37:51.020Z,76.00
2019-02-17T02:40:21.938Z,76.00
2019-02-17T02:42:51.622Z,75.70
2019-02-17T02:45:22.037Z,75.50
2019-02-17T02:47:51.746Z,75.50
2019-02-17T02:50:22.372Z,75.40
2019-02-17T02:52:52.013Z,75.20
2019-02-17T02:55:21.459Z,75.20
2019-02-17T02:57:51.002Z,75.30
2019-02-17T03:00:21.100Z,75.40
2019-02-17T03:02:50.516Z,75.40
2019-02-17T03:05:20.225Z,75.20
2019-02-17T03:07:50.219Z,75.20
2019-02-17T03:10:19.388Z,75.30
2019-02-17T03:12:48.998Z,75.50
2019-02-17T03:15:18.608Z,75.40
2019-02-17T03:17:48.617Z,75.30
2019-02-17T03:20:17.713Z,75.30
2019-02-17T03:22:47.368Z,75.40
2019-02-17T03:25:17.355Z,75.60
2019-02-17T03:27:47.259Z,75.50
2019-02-17T03:30:17.450Z,75.60
2019-02-17T03:32:46.871Z,75.60
2019-02-17T03:35:16.328Z,75.40
2019-02-17T03:37:46.391Z,75.60
2019-02-17T03:40:16.039Z,75.80
2019-02-17T03:42:45.704Z,75.80
2019-02-17T03:45:15.812Z,75.70
2019-02-17T03:47:45.041Z,75.90
2019-02-17T03:50:14.357Z,75.80
2019-02-17T03:52:44.938Z,75.70
2019-02-17T03:55:14.688Z,75.70
2019-02-17T03:57:44.829Z,75.60
2019-02-17T04:00:17.092Z,75.90
2019-02-17T04:02:45.627Z,75.90
2019-02-17T04:05:14.963Z,75.80
2019-02-17T04:07:44.869Z,75.80
2019-02-17T04:10:14.483Z,75.80
2019-02-17T04:12:44.649Z,75.80
2019-02-17T04:15:14.319Z,76.00
2019-02-17T04:17:44.318Z,76.00
2019-02-17T04:20:14.918Z,75.90
2019-02-17T04:22:44.680Z,75.80
2019-02-17T04:25:14.158Z,75.80
2019-02-17T04:27:43.758Z,75.80
2019-02-17T04:30:13.773Z,75.60
2019-02-17T04:32:43.742Z,75.80
2019-02-17T04:35:13.063Z,75.80
2019-02-17T04:37:41.977Z,75.80
2019-02-17T04:40:11.357Z,75.80
2019-02-17T04:42:41.021Z,75.80
2019-02-17T04:45:11.996Z,75.80
2019-02-17T04:47:41.286Z,76.10
2019-02-17T04:50:11.234Z,76.00
2019-02-17T04:52:40.723Z,75.90
2019-02-17T04:55:12.381Z,75.80
2019-02-17T04:57:41.669Z,75.80
2019-02-17T05:00:11.986Z,75.70
2019-02-17T05:02:41.896Z,76.00
2019-02-17T05:05:11.453Z,75.90
2019-02-17T05:07:41.018Z,75.60
2019-02-17T05:10:10.743Z,75.50
2019-02-17T05:12:41.089Z,75.50
2019-02-17T05:15:13.079Z,75.30
2019-02-17T05:17:42.271Z,75.30
2019-02-17T05:20:11.582Z,75.50
2019-02-17T05:22:40.885Z,75.60
2019-02-17T05:25:10.159Z,75.70
2019-02-17T05:27:39.753Z,75.50
2019-02-17T05:30:11.441Z,75.70
2019-02-17T05:32:40.363Z,75.70
2019-02-17T05:35:09.236Z,75.70
2019-02-17T05:37:38.752Z,75.70
2019-02-17T05:40:08.368Z,75.80
2019-02-17T05:42:37.218Z,75.80
2019-02-17T05:45:07.562Z,75.90
2019-02-17T05:47:36.705Z,75.90
2019-02-17T05:50:07.246Z,75.90
2019-02-17T05:52:36.573Z,76.10
2019-02-17T05:55:06.885Z,76.00
2019-02-17T05:57:36.797Z,76.10
2019-02-17T06:00:08.587Z,76.00
2019-02-17T06:02:38.369Z,76.00
2019-02-17T06:05:08.762Z,76.10
2019-02-17T06:07:39.130Z,76.10
2019-02-17T06:10:10.270Z,76.00
2019-02-17T06:12:40.052Z,75.90
2019-02-17T06:15:09.630Z,75.90
2019-02-17T06:17:40.772Z,75.80
2019-02-17T06:20:11.300Z,75.80
2019-02-17T06:22:41.365Z,75.90
2019-02-17T06:25:10.439Z,75.90
2019-02-17T06:27:39.705Z,76.00
2019-02-17T06:30:09.865Z,75.90
2019-02-17T06:32:39.520Z,76.00
2019-02-17T06:35:09.250Z,75.90
2019-02-17T06:37:39.054Z,76.00
2019-02-17T06:40:09.394Z,76.00
2019-02-17T06:42:38.570Z,76.00
2019-02-17T06:45:10.124Z,75.80
2019-02-17T06:47:39.417Z,75.80
2019-02-17T06:50:10.176Z,75.90
2019-02-17T06:52:40.849Z,75.90
2019-02-17T06:55:26.384Z,76.00
2019-02-17T06:57:56.963Z,76.10
2019-02-17T07:00:27.729Z,76.00
2019-02-17T07:02:57.474Z,76.10
2019-02-17T07:05:37.261Z,76.20
2019-02-17T07:08:06.321Z,76.20
2019-02-17T07:10:35.456Z,76.30
2019-02-17T07:13:04.562Z,76.30
2019-02-17T07:15:33.509Z,76.60
2019-02-17T07:18:03.128Z,76.70
2019-02-17T07:20:33.229Z,76.70
2019-02-17T07:23:02.383Z,76.80
2019-02-17T07:25:31.563Z,76.70
2019-02-17T07:28:00.657Z,76.90
2019-02-17T07:30:29.575Z,77.00
2019-02-17T07:32:58.671Z,77.10
2019-02-17T07:35:29.474Z,77.10
2019-02-17T07:37:59.046Z,77.10
2019-02-17T07:40:28.035Z,77.20
2019-02-17T07:42:57.648Z,77.10
2019-02-17T07:45:27.116Z,77.30
2019-02-17T07:47:56.947Z,77.20
2019-02-17T07:50:27.775Z,77.20
2019-02-17T07:52:56.691Z,77.30
2019-02-17T07:55:25.881Z,77.30
2019-02-17T07:57:54.850Z,77.30
2019-02-17T08:00:24.134Z,77.30
2019-02-17T08:02:53.744Z,77.40
2019-02-17T08:05:23.910Z,77.40
2019-02-17T08:07:53.625Z,77.40
2019-02-17T08:10:22.727Z,77.40
2019-02-17T08:12:52.419Z,77.40
2019-02-17T08:15:21.217Z,77.40
2019-02-17T08:17:50.399Z,77.30
2019-02-17T08:20:19.888Z,77.50
2019-02-17T08:22:48.817Z,77.50
2019-02-17T08:25:21.930Z,77.60
2019-02-17T08:27:49.378Z,77.70
2019-02-17T08:30:18.864Z,77.80
2019-02-17T08:32:47.629Z,78.00
2019-02-17T08:35:17.064Z,78.00
2019-02-17T08:37:46.418Z,78.00
2019-02-17T08:40:15.907Z,77.90
2019-02-17T08:42:44.913Z,77.50
2019-02-17T08:45:13.830Z,77.30
2019-02-17T08:47:42.996Z,77.10
2019-02-17T08:50:13.154Z,77.10
2019-02-17T08:52:42.830Z,76.90
2019-02-17T08:55:11.858Z,76.60
2019-02-17T08:57:40.939Z,76.40
2019-02-17T09:00:14.471Z,76.20
2019-02-17T09:02:43.368Z,76.00
2019-02-17T09:05:12.573Z,75.70
2019-02-17T09:07:42.113Z,75.70
2019-02-17T09:10:12.660Z,75.50
2019-02-17T09:12:43.164Z,75.40
2019-02-17T09:15:12.988Z,75.30
2019-02-17T09:17:42.664Z,75.20
2019-02-17T09:20:12.614Z,75.30
2019-02-17T09:22:41.649Z,75.00
2019-02-17T09:25:11.889Z,75.20
2019-02-17T09:27:41.193Z,75.30
2019-02-17T09:30:13.062Z,75.10
2019-02-17T09:32:42.242Z,74.90
2019-02-17T09:35:11.739Z,75.00
2019-02-17T09:37:40.568Z,74.80
2019-02-17T09:40:13.472Z,74.70
2019-02-17T09:42:42.638Z,74.60
2019-02-17T09:45:15.725Z,74.50
2019-02-17T09:47:45.379Z,74.30
2019-02-17T09:50:15.612Z,73.80
2019-02-17T09:52:44.811Z,73.50
2019-02-17T09:55:13.998Z,73.10
2019-02-17T09:57:43.603Z,72.70
2019-02-17T10:00:17.832Z,72.20
2019-02-17T10:02:47.116Z,71.40
2019-02-17T10:05:16.606Z,71.20
2019-02-17T10:07:45.778Z,70.50
2019-02-17T10:10:18.987Z,69.90
2019-02-17T10:12:48.615Z,69.20
2019-02-17T10:15:17.871Z,68.10
2019-02-17T10:17:47.417Z,67.70
2019-02-17T10:20:17.411Z,67.20
2019-02-17T10:22:46.197Z,66.50
2019-02-17T10:25:15.791Z,66.30
2019-02-17T10:27:45.063Z,65.80
2019-02-17T10:30:18.076Z,65.60
2019-02-17T10:32:47.347Z,65.50
2019-02-17T10:35:17.696Z,64.70
2019-02-17T10:37:46.930Z,64.60
2019-02-17T10:40:18.407Z,63.80
2019-02-17T10:42:47.635Z,63.70
2019-02-17T10:45:16.789Z,63.70
2019-02-17T10:47:45.796Z,63.50
2019-02-17T10:50:15.145Z,63.40
2019-02-17T10:52:44.811Z,63.40
2019-02-17T10:55:14.590Z,63.00
2019-02-17T10:57:44.067Z,63.30
2019-02-17T11:00:17.703Z,63.20
2019-02-17T11:02:47.731Z,63.30
2019-02-17T11:05:17.164Z,63.20
2019-02-17T11:07:46.341Z,63.10
2019-02-17T11:10:16.475Z,63.10
2019-02-17T11:12:45.413Z,63.20
2019-02-17T11:15:20.882Z,63.10
2019-02-17T11:17:50.456Z,63.30
2019-02-17T11:20:19.511Z,63.50
2019-02-17T11:22:48.841Z,62.80
2019-02-17T11:25:17.600Z,62.40
2019-02-17T11:27:46.840Z,62.10
2019-02-17T11:30:18.731Z,62.30
2019-02-17T11:32:57.615Z,62.50
2019-02-17T11:35:19.093Z,62.30
2019-02-17T11:37:47.968Z,62.00
2019-02-17T11:40:17.478Z,62.30
2019-02-17T11:42:47.222Z,62.30
2019-02-17T11:45:18.367Z,62.20
2019-02-17T11:47:47.323Z,62.30
2019-02-17T11:50:17.821Z,62.20
2019-02-17T11:52:47.154Z,62.10
2019-02-17T11:55:16.956Z,62.00
2019-02-17T11:57:46.064Z,62.00
2019-02-17T12:00:17.264Z,61.60
2019-02-17T12:02:46.096Z,61.30
2019-02-17T12:05:15.197Z,61.50
2019-02-17T12:07:44.825Z,61.60
2019-02-17T12:10:14.083Z,61.40
2019-02-17T12:12:43.379Z,61.30
2019-02-17T12:15:14.010Z,60.90
2019-02-17T12:17:43.489Z,60.30
2019-02-17T12:20:21.938Z,60.30
2019-02-17T12:22:52.699Z,60.00
2019-02-17T12:25:23.263Z,60.30
2019-02-17T12:27:53.856Z,60.10
2019-02-17T12:30:23.050Z,59.30
2019-02-17T12:32:52.025Z,59.40
2019-02-17T12:35:22.721Z,58.60
2019-02-17T12:37:51.523Z,59.10
2019-02-17T12:40:21.001Z,59.00
2019-02-17T12:42:51.146Z,59.20
2019-02-17T12:45:19.979Z,58.60
2019-02-17T12:47:57.503Z,58.20
2019-02-17T12:50:20.161Z,58.20
2019-02-17T12:52:49.245Z,58.10
2019-02-17T12:55:18.946Z,58.50
2019-02-17T12:57:47.871Z,58.10
2019-02-17T13:00:18.215Z,57.60
2019-02-17T13:02:47.100Z,57.60
2019-02-17T13:05:16.591Z,57.60
2019-02-17T13:07:46.046Z,57.20
2019-02-17T13:10:15.053Z,57.00
2019-02-17T13:12:44.324Z,57.10
2019-02-17T13:15:14.529Z,56.90
2019-02-17T13:17:43.570Z,56.80
2019-02-17T13:20:13.535Z,57.10
2019-02-17T13:22:42.680Z,57.30
2019-02-17T13:25:14.051Z,57.10
2019-02-17T13:27:42.907Z,57.00
2019-02-17T13:30:17.380Z,56.90
2019-02-17T13:32:46.333Z,56.60
2019-02-17T13:35:15.591Z,56.80
2019-02-17T13:37:44.607Z,56.40
2019-02-17T13:40:14.498Z,56.30
2019-02-17T13:42:43.773Z,56.40
2019-02-17T13:45:14.591Z,56.70
2019-02-17T13:47:44.365Z,56.70
2019-02-17T13:50:17.501Z,56.60
2019-02-17T13:52:46.612Z,56.80
2019-02-17T13:55:16.090Z,56.60
2019-02-17T13:57:47.188Z,56.60
2019-02-17T14:00:22.672Z,56.70
2019-02-17T14:02:52.491Z,56.40
2019-02-17T14:05:21.524Z,56.20
2019-02-17T14:07:50.345Z,55.60
2019-02-17T14:10:20.106Z,55.30
2019-02-17T14:12:49.577Z,55.40
2019-02-17T14:15:21.940Z,55.30
2019-02-17T14:17:50.902Z,55.20
2019-02-17T14:20:20.051Z,55.50
2019-02-17T14:22:49.421Z,55.50
2019-02-17T14:25:18.253Z,55.60
2019-02-17T14:27:47.346Z,55.10
2019-02-17T14:30:18.129Z,54.60
2019-02-17T14:32:46.993Z,54.10
2019-02-17T14:35:15.909Z,54.00
2019-02-17T14:37:45.138Z,54.10
2019-02-17T14:40:14.934Z,54.10
2019-02-17T14:42:44.212Z,54.10
2019-02-17T14:45:17.251Z,53.80
2019-02-17T14:47:47.052Z,53.70
2019-02-17T14:50:16.803Z,53.50
2019-02-17T14:52:46.129Z,53.50
2019-02-17T14:55:15.043Z,53.20
2019-02-17T14:57:43.884Z,52.90
2019-02-17T15:00:15.275Z,53.10
2019-02-17T15:02:44.701Z,52.90
2019-02-17T15:05:13.566Z,52.50
2019-02-17T15:07:42.418Z,52.60
2019-02-17T15:10:15.133Z,52.70
2019-02-17T15:12:44.003Z,52.10
2019-02-17T15:15:14.821Z,52.00
2019-02-17T15:17:44.271Z,51.90
2019-02-17T15:20:21.834Z,51.60
2019-02-17T15:22:51.371Z,51.30
2019-02-17T15:25:20.554Z,51.20
2019-02-17T15:27:49.590Z,51.70
2019-02-17T15:30:19.758Z,51.90
2019-02-17T15:32:49.360Z,52.00
2019-02-17T15:35:18.462Z,51.90
2019-02-17T15:37:47.467Z,52.10
2019-02-17T15:40:16.789Z,52.30
2019-02-17T15:42:45.998Z,52.60
2019-02-17T15:45:15.933Z,52.70
2019-02-17T15:47:44.975Z,53.20
2019-02-17T15:50:14.997Z,53.20
2019-02-17T15:52:44.398Z,53.60
2019-02-17T15:55:14.533Z,53.70
2019-02-17T15:57:43.754Z,53.90
2019-02-17T16:00:15.699Z,54.00
2019-02-17T16:02:45.011Z,54.40
2019-02-17T16:05:14.257Z,54.80
2019-02-17T16:07:43.349Z,55.00
2019-02-17T16:10:14.538Z,55.20
2019-02-17T16:12:43.625Z,55.30
2019-02-17T16:15:24.851Z,55.60
2019-02-17T16:17:54.253Z,55.80
2019-02-17T16:20:23.242Z,55.80
2019-02-17T16:22:52.516Z,56.00
2019-02-17T16:25:21.526Z,56.60
2019-02-17T16:27:51.390Z,57.00
2019-02-17T16:30:24.054Z,57.30
2019-02-17T16:32:54.593Z,57.60
2019-02-17T16:35:23.788Z,57.90
2019-02-17T16:37:53.387Z,58.30
2019-02-17T16:40:22.305Z,58.70
2019-02-17T16:42:51.500Z,59.00
2019-02-17T16:45:21.016Z,59.20
2019-02-17T16:47:52.091Z,59.60
2019-02-17T16:50:22.514Z,59.90
2019-02-17T16:52:51.533Z,60.20
2019-02-17T16:55:20.764Z,60.40
2019-02-17T16:57:49.668Z,60.70
2019-02-17T17:00:24.723Z,61.10
2019-02-17T17:02:54.786Z,61.60
2019-02-17T17:05:24.276Z,62.50
2019-02-17T17:07:53.308Z,63.40
2019-02-17T17:10:22.475Z,63.40
2019-02-17T17:12:51.728Z,63.60
2019-02-17T17:15:20.767Z,63.80
2019-02-17T17:17:49.471Z,63.90
2019-02-17T17:20:22.625Z,64.20
2019-02-17T17:22:51.461Z,64.50
2019-02-17T17:25:20.375Z,64.90
2019-02-17T17:27:49.304Z,65.00
2019-02-17T17:30:19.627Z,65.20
2019-02-17T17:32:48.691Z,65.60
2019-02-17T17:35:18.033Z,65.70
2019-02-17T17:37:47.106Z,65.90
2019-02-17T17:40:16.700Z,66.00
2019-02-17T17:42:45.679Z,66.10
2019-02-17T17:45:21.010Z,66.40
2019-02-17T17:47:50.216Z,66.50
2019-02-17T17:50:19.269Z,66.60
2019-02-17T17:52:48.363Z,66.80
2019-02-17T17:55:17.400Z,66.90
2019-02-17T17:57:46.667Z,66.90
2019-02-17T18:00:19.303Z,67.20
2019-02-17T18:02:48.153Z,67.30
2019-02-17T18:05:17.190Z,67.50
2019-02-17T18:07:46.217Z,67.60
2019-02-17T18:10:16.453Z,67.60
2019-02-17T18:12:45.685Z,67.60
2019-02-17T18:15:20.350Z,67.80
2019-02-17T18:17:54.680Z,67.90
2019-02-17T18:20:20.043Z,68.00
2019-02-17T18:22:49.276Z,68.20
2019-02-17T18:25:18.560Z,68.30
2019-02-17T18:27:47.209Z,68.40
2019-02-17T18:30:17.665Z,68.60
2019-02-17T18:32:46.500Z,68.60
2019-02-17T18:35:19.863Z,68.70
2019-02-17T18:37:46.528Z,68.80
2019-02-17T18:40:21.248Z,68.80
2019-02-17T18:42:50.260Z,68.90
2019-02-17T18:45:19.232Z,68.90
2019-02-17T18:47:48.915Z,68.90
2019-02-17T18:50:21.109Z,69.00
2019-02-17T18:52:50.672Z,69.00
2019-02-17T18:55:20.186Z,69.10
2019-02-17T18:57:51.104Z,69.20
2019-02-17T19:00:27.230Z,69.30
2019-02-17T19:02:56.295Z,69.30
2019-02-17T19:05:32.018Z,69.40
2019-02-17T19:07:57.699Z,69.60
2019-02-17T19:10:26.671Z,69.70
2019-02-17T19:12:57.541Z,69.80
2019-02-17T19:15:26.550Z,70.00
2019-02-17T19:17:55.865Z,70.10
2019-02-17T19:20:33.831Z,70.20
2019-02-17T19:23:03.142Z,70.30
2019-02-17T19:25:31.950Z,70.50
2019-02-17T19:28:00.918Z,70.60
2019-02-17T19:30:29.806Z,70.60
2019-02-17T19:32:59.311Z,70.50
2019-02-17T19:35:29.478Z,70.50
2019-02-17T19:37:58.584Z,70.60
2019-02-17T19:40:27.758Z,70.70
2019-02-17T19:42:57.101Z,70.80
2019-02-17T19:45:25.878Z,70.70
2019-02-17T19:47:55.702Z,70.90
2019-02-17T19:50:24.919Z,71.00
2019-02-17T19:52:53.873Z,71.20
2019-02-17T19:55:23.036Z,71.10
2019-02-17T19:57:52.083Z,71.20
2019-02-17T20:00:23.140Z,71.20
2019-02-17T20:03:05.698Z,71.20
2019-02-17T20:05:36.186Z,71.20
2019-02-17T20:08:05.814Z,71.30
2019-02-17T20:10:36.835Z,71.20
2019-02-17T20:13:08.330Z,71.30
2019-02-17T20:15:37.341Z,71.40
2019-02-17T20:18:06.540Z,71.30
2019-02-17T20:20:36.364Z,71.30
2019-02-17T20:23:06.132Z,71.20
2019-02-17T20:25:35.504Z,71.30
2019-02-17T20:28:04.962Z,71.30
2019-02-17T20:30:34.423Z,71.30
2019-02-17T20:33:03.714Z,71.20
2019-02-17T20:35:32.366Z,71.40
2019-02-17T20:38:01.530Z,71.40
2019-02-17T20:40:30.764Z,71.50
2019-02-17T20:43:00.775Z,71.50
2019-02-17T20:45:30.326Z,71.60
2019-02-17T20:47:59.912Z,71.70
2019-02-17T20:50:29.460Z,71.70
2019-02-17T20:52:58.476Z,71.80
2019-02-17T20:55:27.347Z,71.70
2019-02-17T20:57:58.474Z,72.10
2019-02-17T21:00:29.122Z,72.00
2019-02-17T21:02:58.377Z,72.00
2019-02-17T21:05:27.606Z,72.20
2019-02-17T21:07:56.946Z,72.30
2019-02-17T21:10:26.134Z,72.30
2019-02-17T21:12:54.951Z,72.40
2019-02-17T21:15:24.471Z,72.40
2019-02-17T21:17:53.634Z,72.30
2019-02-17T21:20:24.421Z,72.40
2019-02-17T21:22:53.543Z,72.30
2019-02-17T21:25:23.029Z,72.30
2019-02-17T21:27:52.383Z,72.50
2019-02-17T21:30:21.628Z,72.60
2019-02-17T21:32:50.632Z,72.60
2019-02-17T21:35:19.806Z,72.60
2019-02-17T21:37:49.885Z,72.70
2019-02-17T21:40:19.610Z,72.70
2019-02-17T21:42:49.161Z,72.90
2019-02-17T21:45:18.565Z,72.90
2019-02-17T21:47:47.680Z,73.10
2019-02-17T21:50:16.780Z,73.30
2019-02-17T21:52:45.907Z,73.20
2019-02-17T21:55:15.923Z,73.10
2019-02-17T21:57:44.980Z,72.90
2019-02-17T22:00:21.337Z,72.90
2019-02-17T22:02:50.525Z,72.90
2019-02-17T22:05:20.214Z,73.00
2019-02-17T22:07:50.493Z,73.10
2019-02-17T22:10:20.951Z,73.20
2019-02-17T22:12:51.347Z,73.40
2019-02-17T22:15:21.761Z,73.30
2019-02-17T22:17:50.824Z,73.20
2019-02-17T22:20:20.092Z,73.20
2019-02-17T22:22:50.070Z,73.30
2019-02-17T22:25:19.052Z,73.30
2019-02-17T22:27:48.185Z,73.20
2019-02-17T22:30:17.203Z,73.20
2019-02-17T22:32:46.242Z,73.10
2019-02-17T22:35:15.979Z,73.10
2019-02-17T22:37:45.137Z,73.30
2019-02-17T22:40:16.318Z,73.30
2019-02-17T22:42:45.544Z,73.20
2019-02-17T22:45:15.555Z,73.30
2019-02-17T22:47:45.297Z,73.30
2019-02-17T22:50:15.705Z,73.40
2019-02-17T22:52:46.785Z,73.50
2019-02-17T22:55:15.939Z,73.60
2019-02-17T22:57:45.456Z,73.80
2019-02-17T23:00:53.104Z,73.70
2019-02-17T23:03:22.629Z,73.90
2019-02-17T23:05:51.764Z,73.90
2019-02-17T23:08:21.181Z,74.00
2019-02-17T23:10:51.006Z,74.00
2019-02-17T23:13:20.495Z,73.90
2019-02-17T23:15:50.313Z,74.20
2019-02-17T23:18:20.239Z,74.10
2019-02-17T23:20:49.103Z,74.00
2019-02-17T23:23:18.211Z,73.80
2019-02-17T23:25:47.488Z,73.60
2019-02-17T23:28:16.799Z,73.60
2019-02-17T23:30:46.031Z,73.60
2019-02-17T23:33:15.273Z,73.70
2019-02-17T23:35:44.326Z,73.70
2019-02-17T23:38:13.099Z,73.60
2019-02-17T23:40:42.342Z,73.50
2019-02-17T23:43:11.250Z,73.50
2019-02-17T23:45:40.274Z,73.60
2019-02-17T23:48:09.408Z,73.60
2019-02-17T23:50:39.084Z,73.60
2019-02-17T23:53:08.135Z,73.70
2019-02-17T23:55:37.549Z,73.50
2019-02-17T23:58:06.495Z,73.70
